Terminal Aerodrome Forecast
Issued by NWS Brownsville, TX

Home | Current Version | Previous Version | Text Only | Print | Product List | Glossary On
Versions: 1 2 3 4 5 6 7 8 9 10 11 12 13 14 15 16 17 18
000
FTUS44 KBRO 191400 AAA
TAFHRL
TAF AMD
KHRL 191410Z 1914/2012 14010KT P6SM FEW025
     FM191800 15011KT P6SM VCSH BKN050
     FM200000 12009KT P6SM OVC250
     FM200400 13006KT P6SM SCT050
     FM200900 15003KT P6SM SCT100 SCT250=

USA.gov is the U.S. government's official web portal to all federal, state and local government web resources and services.